Time;durP1;ratioP1;P1;durP2;ratioP2;P2;SDS_P1;SDS_P2;PMS_P1;PMS_P2;Temp;Humidity;BMP_temperature;BMP_pressure;BME280_temperature;BME280_humidity;BME280_pressure;Samples;Min_cycle;Max_cycle;Signal;HPM_P1;HPM_P2
2024/02/07 00:00:19;;;;;;;0.60;0.60;;;;;;;5.65;85.17;96606.84;29395;202;63009;-54
2024/02/07 00:00:52;;;;;;;0.60;0.60;;;;;;;5.67;85.08;96614.66;29395;207;63005;-57
2024/02/07 00:01:23;;;;;;;0.60;0.60;;;;;;;5.63;85.13;96610.88;29395;225;63009;-53
2024/02/07 00:01:54;;;;;;;0.60;0.60;;;;;;;5.68;85.26;96605.50;29395;204;63005;-58
2024/02/07 00:02:25;;;;;;;2.87;2.78;;;;;;;5.70;84.77;96603.34;29395;211;63009;-55
2024/02/07 00:02:57;;;;;;;0.60;0.60;;;;;;;5.68;84.61;96600.13;29395;310;63005;-54
2024/02/07 00:03:28;;;;;;;0.60;0.60;;;;;;;5.65;84.95;96600.66;29395;243;63009;-54
2024/02/07 00:04:00;;;;;;;0.60;0.60;;;;;;;5.63;85.30;96603.63;29394;218;63004;-57
2024/02/07 00:04:31;;;;;;;0.60;0.60;;;;;;;5.62;85.19;96601.19;29395;218;63009;-54
2024/02/07 00:05:04;;;;;;;0.50;0.50;;;;;;;5.61;85.47;96597.69;29393;215;64009;-54
2024/02/07 00:05:35;;;;;;;0.60;0.60;;;;;;;5.56;85.90;96613.03;29395;198;63008;-55
2024/02/07 00:06:07;;;;;;;0.57;0.57;;;;;;;5.61;85.49;96602.25;29395;204;63008;-55
2024/02/07 00:06:38;;;;;;;1.20;1.12;;;;;;;5.70;84.93;96595.28;29395;211;63012;-54
2024/02/07 00:07:09;;;;;;;0.60;0.60;;;;;;;5.66;84.82;96591.50;29395;250;63004;-55
2024/02/07 00:07:44;;;;;;;0.50;0.50;;;;;;;5.64;85.31;96599.03;29395;221;63009;-54
2024/02/07 00:08:16;;;;;;;0.52;0.52;;;;;;;5.64;85.23;96601.72;29395;205;63005;-54
2024/02/07 00:08:47;;;;;;;0.60;0.60;;;;;;;5.67;85.17;96598.50;29395;217;63009;-55
2024/02/07 00:09:18;;;;;;;0.60;0.60;;;;;;;5.68;84.87;96594.75;29395;227;63005;-54
2024/02/07 00:09:51;;;;;;;0.60;0.60;;;;;;;5.63;84.77;96597.41;29395;210;63009;-54
2024/02/07 00:10:23;;;;;;;0.60;0.60;;;;;;;5.56;85.32;96603.06;29394;276;64009;-57
2024/02/07 00:10:54;;;;;;;0.60;0.60;;;;;;;5.52;85.68;96591.25;29395;249;63009;-55
2024/02/07 00:11:25;;;;;;;0.60;0.60;;;;;;;5.51;85.74;96594.19;29395;197;63004;-54
2024/02/07 00:11:59;;;;;;;0.50;0.50;;;;;;;5.52;85.88;96593.13;29395;204;63009;-53
2024/02/07 00:12:31;;;;;;;0.60;0.60;;;;;;;5.51;85.79;96588.81;29395;231;63004;-54
2024/02/07 00:13:03;;;;;;;0.50;0.50;;;;;;;5.51;85.93;96595.00;29395;219;63008;-55
2024/02/07 00:13:35;;;;;;;0.50;0.50;;;;;;;5.49;86.07;96590.97;29395;220;63004;-54
2024/02/07 00:14:07;;;;;;;0.60;0.60;;;;;;;5.48;86.06;96590.16;29395;215;63009;-54
2024/02/07 00:14:39;;;;;;;0.50;0.50;;;;;;;5.47;86.11;96590.44;29395;206;63005;-54
2024/02/07 00:15:10;;;;;;;0.60;0.60;;;;;;;5.46;86.17;96591.50;29395;214;63009;-54
2024/02/07 00:15:45;;;;;;;0.60;0.60;;;;;;;5.43;86.17;96581.28;29394;231;64009;-53
2024/02/07 00:16:17;;;;;;;0.60;0.60;;;;;;;5.43;86.52;96586.66;29395;209;63009;-55
2024/02/07 00:16:48;;;;;;;0.50;0.50;;;;;;;5.44;86.24;96580.19;29395;202;63005;-54
2024/02/07 00:17:21;;;;;;;0.60;0.60;;;;;;;5.41;86.46;96580.72;29395;300;63009;-54
2024/02/07 00:17:53;;;;;;;0.50;0.50;;;;;;;5.38;86.43;96582.88;29395;210;63005;-54
2024/02/07 00:18:24;;;;;;;0.60;0.60;;;;;;;5.35;86.89;96580.72;29395;197;63019;-53
2024/02/07 00:18:55;;;;;;;0.60;0.60;;;;;;;5.36;86.66;96587.72;29395;198;63004;-53
2024/02/07 00:19:26;;;;;;;0.50;0.50;;;;;;;5.36;86.70;96586.91;29395;243;63009;-54
2024/02/07 00:19:58;;;;;;;0.50;0.50;;;;;;;5.39;87.02;96586.37;29395;196;63004;-54
2024/02/07 00:20:29;;;;;;;0.50;0.50;;;;;;;5.38;86.78;96582.88;29395;209;63009;-55
2024/02/07 00:21:03;;;;;;;0.50;0.50;;;;;;;5.43;86.60;96581.28;29394;226;64008;-54
2024/02/07 00:21:34;;;;;;;0.50;0.50;;;;;;;5.52;86.38;96579.66;29395;215;63009;-54
2024/02/07 00:22:05;;;;;;;6.60;6.35;;;;;;;5.51;86.06;96575.38;29394;251;64009;-54
2024/02/07 00:22:37;;;;;;;0.50;0.50;;;;;;;5.48;86.25;96575.91;29394;216;64014;-54
2024/02/07 00:23:09;;;;;;;0.50;0.50;;;;;;;5.45;86.37;96574.53;29395;222;63005;-53
2024/02/07 00:23:40;;;;;;;0.50;0.50;;;;;;;5.41;86.48;96576.16;29395;198;63009;-54
2024/02/07 00:24:13;;;;;;;0.60;0.60;;;;;;;5.44;86.26;96574.81;29395;225;63005;-54
2024/02/07 00:24:47;;;;;;;0.50;0.50;;;;;;;5.40;86.68;96574.53;29395;297;63009;-53
2024/02/07 00:25:19;;;;;;;0.50;0.50;;;;;;;5.36;86.65;96571.56;29395;216;63005;-54
2024/02/07 00:25:51;;;;;;;0.60;0.60;;;;;;;5.32;87.03;96573.19;29395;239;63009;-54
2024/02/07 00:26:22;;;;;;;0.60;0.60;;;;;;;5.34;86.71;96579.09;29395;221;63004;-54
2024/02/07 00:26:54;;;;;;;0.60;0.60;;;;;;;5.33;87.14;96577.47;29395;239;63009;-53
2024/02/07 00:27:25;;;;;;;0.60;0.60;;;;;;;5.34;86.71;96571.03;29395;246;63007;-72
2024/02/07 00:27:56;;;;;;;0.50;0.50;;;;;;;5.32;86.98;96573.19;29394;212;64013;-54
2024/02/07 00:28:27;;;;;;;0.60;0.60;;;;;;;5.29;87.19;96576.41;29394;255;64008;-54
2024/02/07 00:28:59;;;;;;;0.50;0.50;;;;;;;5.25;87.41;96564.56;29395;218;63008;-54
2024/02/07 00:29:31;;;;;;;0.50;0.50;;;;;;;5.29;87.42;96571.00;29395;215;63005;-55
2024/02/07 00:30:05;;;;;;;0.55;0.55;;;;;;;5.33;87.01;96572.09;29395;206;63009;-54
2024/02/07 00:30:36;;;;;;;0.60;0.60;;;;;;;5.32;86.81;96562.41;29395;218;63005;-54
2024/02/07 00:31:11;;;;;;;0.60;0.60;;;;;;;5.31;87.02;96558.09;29395;197;63009;-54
2024/02/07 00:31:42;;;;;;;0.70;0.70;;;;;;;5.37;87.11;96562.44;29395;203;63005;-53
2024/02/07 00:32:14;;;;;;;0.60;0.60;;;;;;;5.36;86.72;96557.31;29395;335;63009;-54
2024/02/07 00:32:46;;;;;;;0.60;0.60;;;;;;;5.34;86.99;96557.56;29395;213;63005;-54
2024/02/07 00:33:17;;;;;;;0.60;0.60;;;;;;;5.30;87.15;96555.69;29395;224;63019;-55
2024/02/07 00:33:49;;;;;;;0.60;0.60;;;;;;;5.25;87.10;96559.16;29394;243;64009;-54
2024/02/07 00:34:21;;;;;;;0.50;0.50;;;;;;;5.27;87.35;96556.22;29395;206;63009;-54
2024/02/07 00:34:53;;;;;;;0.60;0.60;;;;;;;5.24;87.40;96552.19;29395;197;63004;-54
2024/02/07 00:35:24;;;;;;;0.50;0.50;;;;;;;5.22;87.76;96554.31;29395;239;63017;-54
2024/02/07 00:35:55;;;;;;;0.60;0.60;;;;;;;5.21;87.75;96552.72;29395;208;63004;-54
2024/02/07 00:36:26;;;;;;;0.60;0.60;;;;;;;5.21;87.72;96547.31;29395;252;63008;-72
2024/02/07 00:36:58;;;;;;;0.60;0.60;;;;;;;5.19;87.76;96546.00;29395;209;63005;-54
2024/02/07 00:37:29;;;;;;;0.50;0.50;;;;;;;5.18;88.03;96547.87;29395;232;63009;-54
2024/02/07 00:38:02;;;;;;;0.50;0.50;;;;;;;5.15;87.99;96559.19;29395;292;63005;-55
2024/02/07 00:38:34;;;;;;;0.60;0.60;;;;;;;5.16;88.25;96558.09;29395;212;63009;-54
2024/02/07 00:39:06;;;;;;;0.60;0.60;;;;;;;5.17;88.26;96551.66;29394;247;64009;-54
2024/02/07 00:39:37;;;;;;;0.50;0.50;;;;;;;5.23;88.13;96542.50;29395;268;63009;-54
2024/02/07 00:40:13;;;;;;;0.60;0.60;;;;;;;5.23;87.60;96550.56;29395;274;63015;-53
2024/02/07 00:40:44;;;;;;;0.60;0.60;;;;;;;5.22;87.69;96545.44;29395;252;63009;-54
2024/02/07 00:41:23;;;;;;;0.60;0.60;;;;;;;5.17;87.79;96548.97;29395;276;63004;-53
2024/02/07 00:41:59;;;;;;;0.50;0.50;;;;;;;5.19;87.74;96536.06;29395;233;63009;-54
2024/02/07 00:42:31;;;;;;;0.60;0.60;;;;;;;5.20;87.92;96547.63;29395;202;63004;-54
2024/02/07 00:43:03;;;;;;;0.60;0.60;;;;;;;5.20;87.89;96537.62;29395;273;63009;-54
2024/02/07 00:43:35;;;;;;;0.50;0.50;;;;;;;5.21;87.95;96536.56;29395;224;63004;-54
2024/02/07 00:44:06;;;;;;;0.50;0.50;;;;;;;5.17;88.12;96535.50;29394;225;64014;-55
2024/02/07 00:44:38;;;;;;;0.50;0.50;;;;;;;5.17;87.94;96532.81;29395;265;63005;-53
2024/02/07 00:45:10;;;;;;;0.50;0.50;;;;;;;5.22;87.87;96532.81;29395;236;63009;-54
2024/02/07 00:45:41;;;;;;;0.50;0.50;;;;;;;5.24;87.80;96532.53;29395;281;63005;-54
2024/02/07 00:46:13;;;;;;;0.60;0.60;;;;;;;5.22;87.49;96532.00;29395;214;63009;-54
2024/02/07 00:46:46;;;;;;;0.60;0.60;;;;;;;5.21;87.57;96536.56;29395;263;63005;-54
2024/02/07 00:47:18;;;;;;;0.60;0.60;;;;;;;5.19;87.55;96541.44;29395;271;63009;-55
2024/02/07 00:47:49;;;;;;;0.60;0.60;;;;;;;5.18;87.87;96537.12;29395;275;63005;-54
2024/02/07 00:48:21;;;;;;;0.50;0.50;;;;;;;5.22;87.70;96538.19;29395;196;63009;-54
2024/02/07 00:48:52;;;;;;;0.50;0.50;;;;;;;5.25;87.78;96537.66;29395;202;63000;-54
2024/02/07 00:49:24;;;;;;;0.50;0.50;;;;;;;5.24;87.60;96536.03;29394;264;64013;-54
2024/02/07 00:49:56;;;;;;;0.50;0.50;;;;;;;5.22;87.79;96538.19;29395;205;63004;-55
2024/02/07 00:50:27;;;;;;;0.60;0.60;;;;;;;5.20;87.81;96544.94;29395;221;63009;-55
2024/02/07 00:50:59;;;;;;;0.50;0.50;;;;;;;5.20;87.78;96534.94;29395;209;63004;-54
2024/02/07 00:51:31;;;;;;;0.60;0.60;;;;;;;5.23;87.71;96539.81;29394;202;64013;-55
2024/02/07 00:52:04;;;;;;;0.80;0.80;;;;;;;5.23;87.65;96539.81;29395;226;63005;-54
2024/02/07 00:52:35;;;;;;;0.50;0.50;;;;;;;5.19;87.75;96533.37;29395;216;63018;-54
2024/02/07 00:53:07;;;;;;;0.50;0.50;;;;;;;5.17;87.74;96534.72;29395;221;63005;-55
2024/02/07 00:53:41;;;;;;;0.60;0.60;;;;;;;5.18;87.71;96541.69;29395;245;63009;-54
2024/02/07 00:54:13;;;;;;;0.50;0.50;;;;;;;5.18;87.78;96531.75;29395;251;63005;-54
2024/02/07 00:54:44;;;;;;;0.50;0.50;;;;;;;5.18;87.94;96531.75;29394;219;64013;-70
2024/02/07 00:55:16;;;;;;;0.60;0.60;;;;;;;5.18;88.06;96537.12;29395;241;63005;-54
2024/02/07 00:55:47;;;;;;;0.60;0.60;;;;;;;5.16;88.25;96533.09;29395;277;63009;-55
2024/02/07 00:56:18;;;;;;;0.60;0.60;;;;;;;5.11;88.35;96536.56;29395;251;63004;-53
2024/02/07 00:56:50;;;;;;;0.50;0.50;;;;;;;5.09;88.51;96530.66;29395;252;63009;-54
2024/02/07 00:57:22;;;;;;;0.60;0.60;;;;;;;5.14;88.54;96530.66;29395;253;63004;-56
2024/02/07 00:57:55;;;;;;;0.50;0.50;;;;;;;5.18;88.30;96530.94;29395;240;63009;-54
2024/02/07 00:58:26;;;;;;;0.60;0.60;;;;;;;5.18;88.30;96534.44;29395;279;63004;-54
2024/02/07 00:58:57;;;;;;;0.60;0.60;;;;;;;5.22;88.08;96532.81;29395;283;63008;-54
2024/02/07 00:59:28;;;;;;;0.60;0.60;;;;;;;5.22;88.03;96522.03;29395;219;63005;-54
2024/02/07 01:00:00;;;;;;;0.60;0.60;;;;;;;5.22;87.92;96522.03;29394;211;64014;-54
2024/02/07 01:00:32;;;;;;;0.50;0.50;;;;;;;5.22;87.74;96518.53;29395;192;63005;-54
2024/02/07 01:01:04;;;;;;;0.50;0.50;;;;;;;5.18;88.06;96515.63;29394;214;64013;-54
2024/02/07 01:01:35;;;;;;;0.60;0.60;;;;;;;5.16;88.16;96523.13;29395;297;63005;-54
2024/02/07 01:02:06;;;;;;;0.55;0.55;;;;;;;5.15;88.43;96521.53;29395;344;63009;-54
2024/02/07 01:02:38;;;;;;;0.60;0.60;;;;;;;5.17;88.40;96524.75;29395;257;63005;-55
2024/02/07 01:03:09;;;;;;;0.50;0.50;;;;;;;5.18;88.27;96518.31;29395;230;63009;-54
2024/02/07 01:03:40;;;;;;;0.50;0.50;;;;;;;5.17;88.00;96521.25;29395;263;63004;-54
2024/02/07 01:04:11;;;;;;;0.50;0.50;;;;;;;5.15;87.96;96526.09;29395;202;63024;-55
2024/02/07 01:04:43;;;;;;;0.50;0.50;;;;;;;5.13;88.14;96523.66;29395;218;63004;-54
2024/02/07 01:05:14;;;;;;;0.50;0.50;;;;;;;5.15;88.45;96520.72;29395;229;63009;-54
2024/02/07 01:05:46;;;;;;;0.60;0.60;;;;;;;5.16;88.37;96516.94;29395;196;63004;-54
2024/02/07 01:06:17;;;;;;;0.60;0.60;;;;;;;5.17;88.44;96521.25;29394;249;64013;-54
2024/02/07 01:06:49;;;;;;;0.60;0.60;;;;;;;5.16;88.47;96525.81;29395;198;63005;-54
2024/02/07 01:07:20;;;;;;;0.60;0.60;;;;;;;5.17;88.43;96530.12;29395;241;63009;-54
2024/02/07 01:07:51;;;;;;;0.60;0.60;;;;;;;5.15;88.47;96521.53;29395;215;63005;-54
2024/02/07 01:08:22;;;;;;;0.60;0.60;;;;;;;5.14;88.54;96525.28;29395;227;63009;-54
2024/02/07 01:08:57;;;;;;;0.60;0.60;;;;;;;5.11;88.54;96523.13;29395;202;63005;-53
2024/02/07 01:09:29;;;;;;;0.60;0.60;;;;;;;5.08;88.70;96526.34;29395;237;63009;-54
2024/02/07 01:10:01;;;;;;;0.50;0.50;;;;;;;5.06;89.05;96528.50;29395;203;63005;-54
2024/02/07 01:10:32;;;;;;;0.60;0.60;;;;;;;5.06;88.91;96533.87;29395;221;63009;-54
2024/02/07 01:11:04;;;;;;;0.50;0.50;;;;;;;5.03;88.99;96527.16;29395;209;63004;-54
2024/02/07 01:11:36;;;;;;;0.50;0.50;;;;;;;5.09;89.13;96527.16;29394;278;64013;-54
2024/02/07 01:12:07;;;;;;;0.60;0.60;;;;;;;5.14;88.76;96524.47;29395;254;63004;-54
2024/02/07 01:12:38;;;;;;;0.60;0.60;;;;;;;5.15;88.54;96526.09;29395;254;63008;-54
2024/02/07 01:13:11;;;;;;;0.60;0.60;;;;;;;5.17;88.61;96519.38;29394;217;64008;-54
2024/02/07 01:13:43;;;;;;;0.60;0.60;;;;;;;5.22;88.53;96522.03;29395;281;63008;-54
2024/02/07 01:14:15;;;;;;;0.50;0.50;;;;;;;5.22;88.41;96523.94;29395;203;63004;-55
2024/02/07 01:14:46;;;;;;;0.60;0.60;;;;;;;5.22;88.34;96527.44;29395;229;63009;-55
2024/02/07 01:15:17;;;;;;;0.60;0.60;;;;;;;5.21;88.41;96520.44;29395;204;63005;-54
2024/02/07 01:15:48;;;;;;;0.60;0.60;;;;;;;5.18;88.53;96525.56;29395;229;63005;-54
2024/02/07 01:16:20;;;;;;;0.60;0.60;;;;;;;5.16;88.44;96528.53;29395;197;63005;-54
2024/02/07 01:16:51;;;;;;;0.88;0.88;;;;;;;5.16;88.43;96528.53;29395;237;63009;-54
2024/02/07 01:17:22;;;;;;;0.60;0.60;;;;;;;5.14;88.64;96525.28;29395;290;63005;-53
2024/02/07 01:17:54;;;;;;;0.50;0.50;;;;;;;5.12;88.79;96526.63;29395;196;63009;-56
2024/02/07 01:18:25;;;;;;;0.60;0.60;;;;;;;5.10;89.36;96528.78;29394;211;64009;-54
2024/02/07 01:18:57;;;;;;;0.50;0.50;;;;;;;5.20;88.86;96523.41;29395;243;63009;-55
2024/02/07 01:19:28;;;;;;;0.55;0.55;;;;;;;5.23;88.33;96529.03;29395;290;63004;-54
2024/02/07 01:19:59;;;;;;;0.60;0.60;;;;;;;5.23;88.41;96529.03;29395;244;63009;-54
2024/02/07 01:20:30;;;;;;;0.60;0.60;;;;;;;5.23;88.26;96523.66;29395;212;63004;-54
2024/02/07 01:21:01;;;;;;;0.50;0.50;;;;;;;5.23;88.15;96526.34;29395;212;63009;-54
2024/02/07 01:21:33;;;;;;;0.50;0.50;;;;;;;5.20;88.27;96529.56;29395;238;63005;-54
2024/02/07 01:22:05;;;;;;;0.52;0.52;;;;;;;5.21;88.52;96520.44;29395;225;63009;-54
2024/02/07 01:22:37;;;;;;;0.60;0.60;;;;;;;5.22;88.21;96522.03;29395;209;63016;-54
2024/02/07 01:23:09;;;;;;;0.60;0.60;;;;;;;5.21;88.52;96520.44;29395;198;63009;-54
2024/02/07 01:23:45;;;;;;;0.60;0.60;;;;;;;5.20;88.56;96518.81;29394;213;64009;-73
2024/02/07 01:24:16;;;;;;;0.60;0.60;;;;;;;5.18;88.80;96512.94;29395;211;63016;-54
2024/02/07 01:24:51;;;;;;;0.60;0.60;;;;;;;5.18;88.87;96523.69;29395;287;63005;-54
2024/02/07 01:25:25;;;;;;;0.60;0.60;;;;;;;5.17;89.22;96514.00;29395;215;63009;-55
2024/02/07 01:25:57;;;;;;;0.60;0.60;;;;;;;5.19;89.20;96511.03;29395;276;63004;-54
2024/02/07 01:26:35;;;;;;;0.50;0.50;;;;;;;5.22;89.00;96510.47;29395;224;63009;-54
2024/02/07 01:27:07;;;;;;;0.57;0.57;;;;;;;5.24;88.93;96514.50;29395;221;63004;-54
2024/02/07 01:27:39;;;;;;;0.60;0.60;;;;;;;5.28;88.82;96510.22;29395;238;63016;-54
2024/02/07 01:28:12;;;;;;;0.50;0.50;;;;;;;5.27;89.11;96510.47;29394;272;64008;-54
2024/02/07 01:28:44;;;;;;;0.50;0.50;;;;;;;5.25;88.96;96507.25;29395;241;63009;-54
2024/02/07 01:29:15;;;;;;;0.50;0.50;;;;;;;5.22;88.90;96500.53;29395;256;63005;-53
2024/02/07 01:29:46;;;;;;;0.60;0.60;;;;;;;5.20;88.98;96513.44;29395;256;63009;-53
2024/02/07 01:30:18;;;;;;;0.60;0.60;;;;;;;5.18;89.46;96509.44;29395;264;63007;-54
2024/02/07 01:30:49;;;;;;;0.60;0.60;;;;;;;5.17;89.37;96510.50;29395;203;63009;-54
2024/02/07 01:31:22;;;;;;;0.50;0.50;;;;;;;5.15;89.50;96508.06;29395;211;63010;-54
2024/02/07 01:31:57;;;;;;;0.60;0.60;;;;;;;5.14;89.57;96492.22;29395;250;63009;-71
2024/02/07 01:32:28;;;;;;;0.50;0.50;;;;;;;5.13;89.65;96504.03;29395;291;63005;-54
2024/02/07 01:32:59;;;;;;;0.60;0.60;;;;;;;5.14;89.91;96514.53;29395;212;63009;-54
2024/02/07 01:33:30;;;;;;;0.50;0.50;;;;;;;5.17;89.67;96507.81;29394;222;64009;-55
2024/02/07 01:34:01;;;;;;;0.50;0.50;;;;;;;5.20;89.50;96508.06;29395;235;63009;-54
2024/02/07 01:34:36;;;;;;;0.60;0.60;;;;;;;5.23;89.50;96502.16;29395;230;63004;-54
2024/02/07 01:35:09;;;;;;;0.50;0.50;;;;;;;5.27;89.28;96511.28;29395;199;63009;-54
2024/02/07 01:35:41;;;;;;;0.50;0.50;;;;;;;5.27;89.20;96503.22;29395;206;63011;-53
2024/02/07 01:36:14;;;;;;;0.60;0.60;;;;;;;5.46;88.47;96502.69;29395;244;63009;-54
2024/02/07 01:36:46;;;;;;;0.50;0.50;;;;;;;5.49;88.06;96499.47;29395;199;63005;-53
2024/02/07 01:37:17;;;;;;;0.50;0.50;;;;;;;5.56;87.89;96505.38;29395;280;63009;-56
2024/02/07 01:37:50;;;;;;;0.60;0.60;;;;;;;5.55;87.45;96503.75;29395;286;63005;-54
2024/02/07 01:38:21;;;;;;;0.50;0.50;;;;;;;5.50;87.62;96499.22;29395;198;63009;-55
2024/02/07 01:38:54;;;;;;;0.60;0.60;;;;;;;5.47;87.73;96490.88;29394;210;64009;-54
2024/02/07 01:39:26;;;;;;;0.60;0.60;;;;;;;5.52;87.80;96493.56;29395;221;63016;-55
2024/02/07 01:39:58;;;;;;;0.60;0.60;;;;;;;5.49;87.75;96494.09;29395;272;63005;-55
2024/02/07 01:40:36;;;;;;;0.60;0.60;;;;;;;5.52;87.70;96493.56;29394;246;64013;-55
2024/02/07 01:41:08;;;;;;;0.60;0.60;;;;;;;5.69;87.05;96489.50;29395;209;63018;-56
2024/02/07 01:41:58;;;;;;;0.60;0.60;;;;;;;5.72;86.59;96493.53;29395;198;63023;-52
2024/02/07 01:42:31;;;;;;;0.70;0.70;;;;;;;5.72;86.39;96485.44;29395;266;63004;-52
2024/02/07 01:43:03;;;;;;;0.60;0.60;;;;;;;5.71;86.55;96498.09;29395;211;63016;-52
2024/02/07 01:43:35;;;;;;;0.60;0.60;;;;;;;5.67;86.54;96488.16;29395;203;63004;-53
2024/02/07 01:44:06;;;;;;;0.50;0.50;;;;;;;5.63;86.67;96489.75;29395;228;63009;-53
2024/02/07 01:44:39;;;;;;;1.05;1.05;;;;;;;5.57;86.96;96485.47;29395;228;63005;-53
2024/02/07 01:45:24;;;;;;;0.60;0.60;;;;;;;5.50;87.45;96490.34;29395;234;63014;-53
2024/02/07 01:45:56;;;;;;;0.60;0.60;;;;;;;5.45;87.67;96487.63;29394;216;64009;-53
2024/02/07 01:46:28;;;;;;;0.50;0.50;;;;;;;5.39;88.20;96498.41;29395;234;63009;-52
2024/02/07 01:47:13;;;;;;;0.60;0.60;;;;;;;5.35;88.32;96494.63;29395;237;63004;-53
2024/02/07 01:47:44;;;;;;;0.60;0.60;;;;;;;5.36;88.61;96500.81;29395;221;63009;-55
2024/02/07 01:48:17;;;;;;;0.60;0.60;;;;;;;5.46;88.28;96495.44;29395;220;63004;-54
2024/02/07 01:48:49;;;;;;;0.50;0.50;;;;;;;5.46;88.19;96492.75;29395;221;63009;-54
2024/02/07 01:49:21;;;;;;;0.50;0.50;;;;;;;5.45;88.12;96488.44;29395;218;63004;-54
2024/02/07 01:49:53;;;;;;;0.60;0.60;;;;;;;5.41;88.47;96492.75;29395;206;63009;-52
2024/02/07 01:50:25;;;;;;;0.60;0.60;;;;;;;5.37;88.50;96492.47;29394;234;64008;-52
2024/02/07 01:50:58;;;;;;;0.50;0.50;;;;;;;5.39;88.54;96487.63;29395;284;63008;-53
2024/02/07 01:51:29;;;;;;;0.57;0.57;;;;;;;5.48;88.23;96487.09;29395;197;63005;-53
2024/02/07 01:52:01;;;;;;;0.52;0.52;;;;;;;5.52;88.09;96474.72;29395;227;63017;-53
2024/02/07 01:52:36;;;;;;;0.50;0.50;;;;;;;5.50;87.76;96482.25;29395;206;63005;-54
2024/02/07 01:53:10;;;;;;;0.60;0.60;;;;;;;5.54;88.05;96478.75;29395;286;63020;-54
2024/02/07 01:53:43;;;;;;;0.60;0.60;;;;;;;5.51;87.79;96479.28;29395;202;63014;-52
2024/02/07 01:54:15;;;;;;;0.98;0.98;;;;;;;5.50;88.06;96482.25;29395;255;63009;-53
2024/02/07 01:54:46;;;;;;;0.60;0.60;;;;;;;5.46;88.07;96478.50;29395;202;63005;-53
2024/02/07 01:55:18;;;;;;;0.50;0.50;;;;;;;5.45;88.10;96472.31;29395;208;63009;-53
2024/02/07 01:55:51;;;;;;;0.50;0.50;;;;;;;5.46;88.01;96478.50;29394;268;64009;-56
2024/02/07 01:56:22;;;;;;;0.60;0.60;;;;;;;5.42;88.47;96472.84;29395;225;63009;-54
2024/02/07 01:56:53;;;;;;;0.60;0.60;;;;;;;5.42;88.47;96474.72;29395;277;63004;-53
2024/02/07 01:57:24;;;;;;;0.70;0.70;;;;;;;5.45;88.40;96472.31;29395;228;63004;-52
2024/02/07 01:57:56;;;;;;;0.60;0.60;;;;;;;5.46;88.22;96476.59;29395;205;63004;-53
2024/02/07 01:58:31;;;;;;;0.60;0.60;;;;;;;5.49;88.26;96478.75;29395;215;63008;-55
2024/02/07 01:59:06;;;;;;;0.60;0.60;;;;;;;5.48;88.10;96470.94;29395;241;63005;-53
2024/02/07 01:59:40;;;;;;;0.50;0.50;;;;;;;5.47;88.16;96472.03;29395;254;63009;-53
2024/02/07 02:00:12;;;;;;;0.60;0.60;;;;;;;5.51;88.14;96470.41;29395;298;63005;-53
2024/02/07 02:00:46;;;;;;;0.50;0.50;;;;;;;5.49;88.07;96477.94;29395;202;63009;-53
2024/02/07 02:01:17;;;;;;;0.60;0.60;;;;;;;5.49;88.25;96469.88;29394;203;64009;-54
2024/02/07 02:01:52;;;;;;;0.60;0.60;;;;;;;5.47;88.22;96472.03;29395;203;63009;-54
2024/02/07 02:02:25;;;;;;;0.50;0.50;;;;;;;5.48;88.26;96479.03;29395;328;63014;-56
2024/02/07 02:02:58;;;;;;;0.50;0.50;;;;;;;5.46;88.32;96467.72;29395;208;63009;-55
2024/02/07 02:03:29;;;;;;;0.50;0.50;;;;;;;5.46;88.26;96465.84;29395;213;63016;-54
2024/02/07 02:04:00;;;;;;;0.52;0.52;;;;;;;5.47;88.45;96463.97;29395;296;63009;-54
2024/02/07 02:04:33;;;;;;;0.60;0.60;;;;;;;5.47;88.35;96469.34;29395;229;63004;-54
2024/02/07 02:05:06;;;;;;;0.60;0.60;;;;;;;5.45;88.35;96461.53;29395;196;63009;-53
2024/02/07 02:05:42;;;;;;;0.60;0.60;;;;;;;5.43;88.53;96468.25;29395;213;63004;-55
2024/02/07 02:06:13;;;;;;;0.60;0.60;;;;;;;5.40;88.78;96464.22;29395;198;63008;-55
2024/02/07 02:06:45;;;;;;;0.60;0.60;;;;;;;5.43;88.65;96474.44;29394;255;64009;-54
2024/02/07 02:07:17;;;;;;;0.50;0.50;;;;;;;5.44;88.70;96459.13;29394;227;64009;-55
2024/02/07 02:07:49;;;;;;;0.50;0.50;;;;;;;5.50;88.71;96458.84;29395;223;63005;-55
2024/02/07 02:08:20;;;;;;;0.60;0.60;;;;;;;5.52;88.65;96461.25;29395;266;63009;-55
2024/02/07 02:08:54;;;;;;;0.60;0.60;;;;;;;5.49;88.52;96462.63;29395;208;63005;-54
2024/02/07 02:09:25;;;;;;;0.60;0.60;;;;;;;5.49;88.61;96464.50;29395;198;63024;-54
2024/02/07 02:09:57;;;;;;;0.60;0.60;;;;;;;5.53;88.45;96460.19;29395;239;63013;-54
2024/02/07 02:10:30;;;;;;;0.52;0.52;;;;;;;5.54;88.44;96451.03;29395;234;63009;-58
2024/02/07 02:11:07;;;;;;;0.50;0.50;;;;;;;5.64;87.80;96453.69;29395;212;63004;-54
2024/02/07 02:11:41;;;;;;;0.60;0.60;;;;;;;5.60;88.06;96452.62;29395;241;63009;-54
2024/02/07 02:12:13;;;;;;;0.50;0.50;;;;;;;5.52;88.10;96445.12;29394;197;64008;-54
2024/02/07 02:12:46;;;;;;;0.50;0.50;;;;;;;5.50;88.54;96450.78;29395;203;63008;-55
2024/02/07 02:13:18;;;;;;;0.52;0.52;;;;;;;5.51;88.22;96456.97;29395;270;63005;-54
2024/02/07 02:13:52;;;;;;;0.60;0.60;;;;;;;5.53;88.39;96452.13;29395;198;63009;-55
2024/02/07 02:14:24;;;;;;;0.60;0.60;;;;;;;5.53;88.79;96446.72;29395;257;63005;-56
2024/02/07 02:14:56;;;;;;;0.60;0.60;;;;;;;5.54;88.58;96459.13;29395;276;63009;-66
2024/02/07 02:15:28;;;;;;;0.60;0.60;;;;;;;5.55;88.32;96460.69;29395;298;63005;-54
2024/02/07 02:16:00;;;;;;;0.60;0.60;;;;;;;5.52;88.63;96447.81;29395;202;63009;-55
2024/02/07 02:16:31;;;;;;;0.60;0.60;;;;;;;5.49;88.65;96448.34;29395;251;63005;-54
2024/02/07 02:17:03;;;;;;;0.60;0.60;;;;;;;5.45;89.31;96445.41;29395;296;63009;-54
2024/02/07 02:17:35;;;;;;;0.60;0.60;;;;;;;5.44;89.55;96448.34;29394;225;64009;-54
2024/02/07 02:18:06;;;;;;;0.50;0.50;;;;;;;5.43;89.19;96441.34;29395;252;63009;-54
2024/02/07 02:18:38;;;;;;;0.50;0.50;;;;;;;5.41;89.45;96448.87;29395;287;63004;-54
2024/02/07 02:19:09;;;;;;;0.60;0.60;;;;;;;5.44;89.58;96448.34;29395;226;63027;-67
2024/02/07 02:19:40;;;;;;;0.50;0.50;;;;;;;5.53;89.08;96446.72;29395;225;63004;-54
2024/02/07 02:20:12;;;;;;;0.60;0.60;;;;;;;5.51;89.03;96443.50;29395;206;63008;-54
2024/02/07 02:20:44;;;;;;;0.60;0.60;;;;;;;5.49;89.11;96451.03;29395;204;63012;-54
2024/02/07 02:21:25;;;;;;;0.50;0.50;;;;;;;5.55;89.32;96449.94;29395;262;63009;-55
2024/02/07 02:22:34;;;;;;;0.50;0.50;;;;;;;5.56;88.90;96448.84;29395;233;63016;-55
2024/02/07 02:23:43;;;;;;;0.60;0.60;;;;;;;5.76;88.12;96443.44;29394;258;64009;-56
2024/02/07 02:24:47;;;;;;;1.05;0.95;;;;;;;5.83;87.37;96432.41;29395;203;63008;-55
2024/02/07 02:25:39;;;;;;;0.60;0.60;;;;;;;5.72;87.52;96440.50;29394;279;64013;-54
2024/02/07 02:27:01;;;;;;;0.70;0.70;;;;;;;5.66;87.91;96433.50;29417;251;63004;-54
2024/02/07 02:28:07;;;;;;;0.60;0.60;;;;;;;5.64;88.45;96434.84;29417;206;63024;-53
2024/02/07 02:29:09;;;;;;;0.70;0.70;;;;;;;5.59;89.36;96437.53;29395;235;63005;-54
2024/02/07 02:29:53;;;;;;;0.50;0.50;;;;;;;5.53;89.50;96444.84;29395;215;63009;-54
2024/02/07 02:30:40;;;;;;;0.50;0.50;;;;;;;5.51;89.69;96440.81;29394;274;64009;-54
2024/02/07 02:31:16;;;;;;;0.60;0.60;;;;;;;5.51;89.67;96433.53;29395;248;63009;-54
2024/02/07 02:31:56;;;;;;;0.60;0.60;;;;;;;5.52;89.31;96434.34;29395;278;63005;-55
2024/02/07 02:32:29;;;;;;;0.60;0.60;;;;;;;5.62;89.27;96439.69;29395;252;63018;-54
2024/02/07 02:33:08;;;;;;;0.60;0.60;;;;;;;5.58;89.36;96430.56;29395;229;63004;-53
2024/02/07 02:33:42;;;;;;;0.60;0.60;;;;;;;5.73;88.73;96433.22;29395;232;63009;-55
2024/02/07 02:34:14;;;;;;;0.60;0.60;;;;;;;5.71;88.63;96438.06;29395;215;63004;-68
2024/02/07 02:34:47;;;;;;;0.50;0.50;;;;;;;5.66;88.94;96446.16;29395;203;63009;-54
2024/02/07 02:35:20;;;;;;;0.50;0.50;;;;;;;5.71;88.61;96436.19;29395;204;63004;-54
2024/02/07 02:35:53;;;;;;;0.85;0.85;;;;;;;5.79;88.36;96440.22;29394;196;64014;-54
2024/02/07 02:36:26;;;;;;;0.60;0.60;;;;;;;5.77;88.15;96437.00;29395;218;63005;-54
2024/02/07 02:37:01;;;;;;;0.50;0.50;;;;;;;5.72;88.49;96434.31;29395;264;63009;-53
2024/02/07 02:37:33;;;;;;;0.50;0.50;;;;;;;5.66;88.62;96425.44;29395;206;63005;-54
2024/02/07 02:38:05;;;;;;;0.60;0.60;;;;;;;5.63;88.74;96431.34;29395;268;63009;-54
2024/02/07 02:38:40;;;;;;;0.52;0.52;;;;;;;5.67;88.83;96431.63;29395;251;63016;-56
2024/02/07 02:39:11;;;;;;;0.52;0.52;;;;;;;5.70;88.81;96426.50;29395;197;63009;-56
2024/02/07 02:39:46;;;;;;;0.50;0.50;;;;;;;5.73;88.58;96420.56;29395;278;63005;-54
2024/02/07 02:40:19;;;;;;;0.57;0.57;;;;;;;5.84;88.20;96421.34;29395;205;63009;-55
2024/02/07 02:40:50;;;;;;;0.50;0.50;;;;;;;5.83;87.90;96417.06;29395;288;63004;-55